sensor_id;sensor_type;location;lat;lon;timestamp;temperature;humidity
429;DHT22;201;48.758;9.290;2022-11-15T00:01:35;10.10;1.00
429;DHT22;201;48.758;9.290;2022-11-15T00:04:03;10.10;1.00
429;DHT22;201;48.758;9.290;2022-11-15T00:06:29;10.10;1.00
429;DHT22;201;48.758;9.290;2022-11-15T00:08:55;10.10;1.00
429;DHT22;201;48.758;9.290;2022-11-15T00:11:22;10.10;1.00
429;DHT22;201;48.758;9.290;2022-11-15T00:13:48;10.10;1.00
429;DHT22;201;48.758;9.290;2022-11-15T00:16:13;10.10;1.00
429;DHT22;201;48.758;9.290;2022-11-15T00:18:39;10.20;1.00
429;DHT22;201;48.758;9.290;2022-11-15T00:21:07;10.20;1.00
429;DHT22;201;48.758;9.290;2022-11-15T00:23:33;10.20;1.00
429;DHT22;201;48.758;9.290;2022-11-15T00:25:59;10.20;1.00
429;DHT22;201;48.758;9.290;2022-11-15T00:28:25;10.20;1.00
429;DHT22;201;48.758;9.290;2022-11-15T00:30:51;10.10;1.00
429;DHT22;201;48.758;9.290;2022-11-15T00:33:17;10.10;1.00
429;DHT22;201;48.758;9.290;2022-11-15T00:35:43;10.10;1.00
429;DHT22;201;48.758;9.290;2022-11-15T00:38:09;10.10;1.00
429;DHT22;201;48.758;9.290;2022-11-15T00:40:34;10.00;1.00
429;DHT22;201;48.758;9.290;2022-11-15T00:43:00;9.90;2.40
429;DHT22;201;48.758;9.290;2022-11-15T00:45:25;9.80;3.00
429;DHT22;201;48.758;9.290;2022-11-15T00:47:51;9.60;3.50
429;DHT22;201;48.758;9.290;2022-11-15T00:50:18;9.50;4.10
429;DHT22;201;48.758;9.290;2022-11-15T00:52:44;9.40;4.40
429;DHT22;201;48.758;9.290;2022-11-15T00:55:14;9.30;4.50
429;DHT22;201;48.758;9.290;2022-11-15T00:57:40;9.30;4.60
429;DHT22;201;48.758;9.290;2022-11-15T01:00:06;9.20;4.90
429;DHT22;201;48.758;9.290;2022-11-15T01:02:32;9.10;5.10
429;DHT22;201;48.758;9.290;2022-11-15T01:04:58;9.00;5.20
429;DHT22;201;48.758;9.290;2022-11-15T01:07:23;9.00;5.30
429;DHT22;201;48.758;9.290;2022-11-15T01:09:49;9.00;5.20
429;DHT22;201;48.758;9.290;2022-11-15T01:12:14;9.00;5.30
429;DHT22;201;48.758;9.290;2022-11-15T01:14:40;8.90;5.40
429;DHT22;201;48.758;9.290;2022-11-15T01:17:05;8.90;5.60
429;DHT22;201;48.758;9.290;2022-11-15T01:19:31;8.90;5.70
429;DHT22;201;48.758;9.290;2022-11-15T01:21:56;8.90;5.70
429;DHT22;201;48.758;9.290;2022-11-15T01:24:22;8.90;5.80
429;DHT22;201;48.758;9.290;2022-11-15T01:26:47;8.90;5.90
429;DHT22;201;48.758;9.290;2022-11-15T01:29:13;8.80;6.00
429;DHT22;201;48.758;9.290;2022-11-15T01:31:38;8.80;6.70
429;DHT22;201;48.758;9.290;2022-11-15T01:34:04;8.60;7.20
429;DHT22;201;48.758;9.290;2022-11-15T01:36:30;8.60;8.10
429;DHT22;201;48.758;9.290;2022-11-15T01:38:57;8.50;7.90
429;DHT22;201;48.758;9.290;2022-11-15T01:41:26;8.40;8.70
429;DHT22;201;48.758;9.290;2022-11-15T01:43:54;8.30;9.20
429;DHT22;201;48.758;9.290;2022-11-15T01:46:33;8.30;9.10
429;DHT22;201;48.758;9.290;2022-11-15T01:49:04;8.20;9.10
429;DHT22;201;48.758;9.290;2022-11-15T01:51:32;8.10;9.70
429;DHT22;201;48.758;9.290;2022-11-15T01:54:06;8.10;10.00
429;DHT22;201;48.758;9.290;2022-11-15T01:56:37;8.10;10.20
429;DHT22;201;48.758;9.290;2022-11-15T01:59:06;8.10;10.20
429;DHT22;201;48.758;9.290;2022-11-15T02:01:33;8.10;10.10
429;DHT22;201;48.758;9.290;2022-11-15T02:04:04;8.00;10.20
429;DHT22;201;48.758;9.290;2022-11-15T02:06:31;7.90;10.50
429;DHT22;201;48.758;9.290;2022-11-15T02:08:57;7.90;10.50
429;DHT22;201;48.758;9.290;2022-11-15T02:11:24;8.00;10.70
429;DHT22;201;48.758;9.290;2022-11-15T02:13:50;8.00;10.70
429;DHT22;201;48.758;9.290;2022-11-15T02:22:06;7.90;10.40
429;DHT22;201;48.758;9.290;2022-11-15T02:30:44;7.80;10.80
429;DHT22;201;48.758;9.290;2022-11-15T02:36:00;7.80;11.40
429;DHT22;201;48.758;9.290;2022-11-15T02:41:35;7.70;11.50
429;DHT22;201;48.758;9.290;2022-11-15T02:44:08;7.60;11.90
429;DHT22;201;48.758;9.290;2022-11-15T02:46:54;7.60;12.40
429;DHT22;201;48.758;9.290;2022-11-15T02:49:41;7.50;12.90
429;DHT22;201;48.758;9.290;2022-11-15T02:52:08;7.50;13.20
429;DHT22;201;48.758;9.290;2022-11-15T02:54:34;7.40;13.60
429;DHT22;201;48.758;9.290;2022-11-15T02:57:07;7.40;13.80
429;DHT22;201;48.758;9.290;2022-11-15T03:13:36;7.30;15.50
429;DHT22;201;48.758;9.290;2022-11-15T03:16:24;7.40;16.20
429;DHT22;201;48.758;9.290;2022-11-15T03:18:57;7.30;15.50
429;DHT22;201;48.758;9.290;2022-11-15T03:21:24;7.40;15.70
429;DHT22;201;48.758;9.290;2022-11-15T03:23:52;7.30;15.80
429;DHT22;201;48.758;9.290;2022-11-15T03:26:20;7.30;15.90
429;DHT22;201;48.758;9.290;2022-11-15T03:28:53;7.40;16.20
429;DHT22;201;48.758;9.290;2022-11-15T03:31:21;7.40;16.20
429;DHT22;201;48.758;9.290;2022-11-15T03:34:09;7.40;16.10
429;DHT22;201;48.758;9.290;2022-11-15T03:36:36;7.40;16.20
429;DHT22;201;48.758;9.290;2022-11-15T03:39:06;7.40;16.20
429;DHT22;201;48.758;9.290;2022-11-15T03:41:43;7.40;16.10
429;DHT22;201;48.758;9.290;2022-11-15T03:46:51;7.50;16.00
429;DHT22;201;48.758;9.290;2022-11-15T03:49:29;7.50;15.70
429;DHT22;201;48.758;9.290;2022-11-15T03:51:58;7.50;15.40
429;DHT22;201;48.758;9.290;2022-11-15T03:54:24;7.60;15.30
429;DHT22;201;48.758;9.290;2022-11-15T03:56:50;7.50;15.30
429;DHT22;201;48.758;9.290;2022-11-15T03:59:15;7.50;15.50
429;DHT22;201;48.758;9.290;2022-11-15T04:01:41;7.50;15.60
429;DHT22;201;48.758;9.290;2022-11-15T04:04:06;7.50;15.40
429;DHT22;201;48.758;9.290;2022-11-15T04:06:32;7.50;15.30
429;DHT22;201;48.758;9.290;2022-11-15T04:08:57;7.60;15.40
429;DHT22;201;48.758;9.290;2022-11-15T04:11:23;7.60;15.30
429;DHT22;201;48.758;9.290;2022-11-15T04:13:48;7.60;15.00
429;DHT22;201;48.758;9.290;2022-11-15T04:16:14;7.60;15.10
429;DHT22;201;48.758;9.290;2022-11-15T04:18:39;7.50;14.80
429;DHT22;201;48.758;9.290;2022-11-15T04:21:05;7.40;14.90
429;DHT22;201;48.758;9.290;2022-11-15T04:23:49;7.40;15.20
429;DHT22;201;48.758;9.290;2022-11-15T04:26:30;7.40;15.40
429;DHT22;201;48.758;9.290;2022-11-15T04:28:55;7.30;15.40
429;DHT22;201;48.758;9.290;2022-11-15T04:31:39;7.30;15.60
429;DHT22;201;48.758;9.290;2022-11-15T04:34:05;7.30;15.70
429;DHT22;201;48.758;9.290;2022-11-15T04:36:30;7.20;15.80
429;DHT22;201;48.758;9.290;2022-11-15T04:39:14;7.20;16.10
429;DHT22;201;48.758;9.290;2022-11-15T04:41:40;7.20;16.30
429;DHT22;201;48.758;9.290;2022-11-15T04:44:05;7.20;16.40
429;DHT22;201;48.758;9.290;2022-11-15T04:46:31;7.20;16.50
429;DHT22;201;48.758;9.290;2022-11-15T04:48:56;7.20;16.70
429;DHT22;201;48.758;9.290;2022-11-15T04:51:22;7.20;16.90
429;DHT22;201;48.758;9.290;2022-11-15T04:53:47;7.20;16.90
429;DHT22;201;48.758;9.290;2022-11-15T04:56:13;7.30;16.80
429;DHT22;201;48.758;9.290;2022-11-15T04:58:38;7.30;16.30
429;DHT22;201;48.758;9.290;2022-11-15T05:01:12;7.30;16.00
429;DHT22;201;48.758;9.290;2022-11-15T05:03:40;7.20;16.00
429;DHT22;201;48.758;9.290;2022-11-15T05:06:24;7.20;16.40
429;DHT22;201;48.758;9.290;2022-11-15T05:08:50;7.10;16.70
429;DHT22;201;48.758;9.290;2022-11-15T05:11:16;7.10;16.90
429;DHT22;201;48.758;9.290;2022-11-15T05:13:41;7.10;16.80
429;DHT22;201;48.758;9.290;2022-11-15T05:16:07;7.10;16.80
429;DHT22;201;48.758;9.290;2022-11-15T05:18:32;7.10;16.80
429;DHT22;201;48.758;9.290;2022-11-15T05:21:05;7.10;16.90
429;DHT22;201;48.758;9.290;2022-11-15T05:23:32;7.10;16.80
429;DHT22;201;48.758;9.290;2022-11-15T05:26:05;7.10;16.90
429;DHT22;201;48.758;9.290;2022-11-15T05:28:32;7.10;16.90
429;DHT22;201;48.758;9.290;2022-11-15T05:31:09;7.10;16.80
429;DHT22;201;48.758;9.290;2022-11-15T05:33:36;7.00;16.70
429;DHT22;201;48.758;9.290;2022-11-15T05:36:09;7.00;16.70
429;DHT22;201;48.758;9.290;2022-11-15T05:38:35;7.00;16.70
429;DHT22;201;48.758;9.290;2022-11-15T05:41:02;7.00;16.80
429;DHT22;201;48.758;9.290;2022-11-15T05:43:29;6.90;16.70
429;DHT22;201;48.758;9.290;2022-11-15T05:45:57;6.90;16.70
429;DHT22;201;48.758;9.290;2022-11-15T05:48:24;6.80;16.60
429;DHT22;201;48.758;9.290;2022-11-15T05:50:49;6.80;17.10
429;DHT22;201;48.758;9.290;2022-11-15T05:53:18;6.70;17.30
429;DHT22;201;48.758;9.290;2022-11-15T05:55:45;6.60;17.40
429;DHT22;201;48.758;9.290;2022-11-15T05:58:10;6.60;17.60
429;DHT22;201;48.758;9.290;2022-11-15T06:00:36;6.50;17.70
429;DHT22;201;48.758;9.290;2022-11-15T06:03:02;6.40;18.00
429;DHT22;201;48.758;9.290;2022-11-15T06:05:27;6.40;18.90
429;DHT22;201;48.758;9.290;2022-11-15T06:07:57;6.40;18.80
429;DHT22;201;48.758;9.290;2022-11-15T06:10:23;6.40;19.20
429;DHT22;201;48.758;9.290;2022-11-15T06:12:59;6.30;19.30
429;DHT22;201;48.758;9.290;2022-11-15T06:15:24;6.30;19.50
429;DHT22;201;48.758;9.290;2022-11-15T06:17:50;6.20;19.70
429;DHT22;201;48.758;9.290;2022-11-15T06:20:16;6.20;19.90
429;DHT22;201;48.758;9.290;2022-11-15T06:22:41;6.10;20.10
429;DHT22;201;48.758;9.290;2022-11-15T06:25:07;6.10;20.30
429;DHT22;201;48.758;9.290;2022-11-15T06:27:32;6.00;20.20
429;DHT22;201;48.758;9.290;2022-11-15T06:29:58;6.00;20.50
429;DHT22;201;48.758;9.290;2022-11-15T06:32:23;6.00;20.80
429;DHT22;201;48.758;9.290;2022-11-15T06:34:49;6.00;20.90
429;DHT22;201;48.758;9.290;2022-11-15T06:37:15;6.00;21.30
429;DHT22;201;48.758;9.290;2022-11-15T06:39:40;6.00;21.30
429;DHT22;201;48.758;9.290;2022-11-15T06:42:08;6.00;21.30
429;DHT22;201;48.758;9.290;2022-11-15T06:44:33;5.90;21.10
429;DHT22;201;48.758;9.290;2022-11-15T06:46:59;5.90;21.10
429;DHT22;201;48.758;9.290;2022-11-15T06:49:24;5.80;21.00
429;DHT22;201;48.758;9.290;2022-11-15T06:51:50;5.80;21.10
429;DHT22;201;48.758;9.290;2022-11-15T06:54:16;5.70;21.10
429;DHT22;201;48.758;9.290;2022-11-15T06:56:41;5.70;21.20
429;DHT22;201;48.758;9.290;2022-11-15T06:59:07;5.70;21.50
429;DHT22;201;48.758;9.290;2022-11-15T07:01:32;5.70;21.70
429;DHT22;201;48.758;9.290;2022-11-15T07:03:58;5.70;21.90
429;DHT22;201;48.758;9.290;2022-11-15T07:06:23;5.80;21.90
429;DHT22;201;48.758;9.290;2022-11-15T07:08:49;5.80;22.00
429;DHT22;201;48.758;9.290;2022-11-15T07:11:14;5.90;21.80
429;DHT22;201;48.758;9.290;2022-11-15T07:13:40;5.90;21.50
429;DHT22;201;48.758;9.290;2022-11-15T07:16:08;6.00;21.20
429;DHT22;201;48.758;9.290;2022-11-15T07:18:35;6.00;20.90
429;DHT22;201;48.758;9.290;2022-11-15T07:21:02;6.10;20.60
429;DHT22;201;48.758;9.290;2022-11-15T07:23:28;6.20;20.40
429;DHT22;201;48.758;9.290;2022-11-15T07:25:56;6.20;19.80
429;DHT22;201;48.758;9.290;2022-11-15T07:28:22;6.30;19.70
429;DHT22;201;48.758;9.290;2022-11-15T07:30:47;6.30;19.30
429;DHT22;201;48.758;9.290;2022-11-15T07:33:13;6.40;18.70
429;DHT22;201;48.758;9.290;2022-11-15T07:35:38;6.50;18.30
429;DHT22;201;48.758;9.290;2022-11-15T07:38:04;6.50;17.60
429;DHT22;201;48.758;9.290;2022-11-15T07:40:31;6.70;17.10
429;DHT22;201;48.758;9.290;2022-11-15T07:43:05;6.80;16.60
429;DHT22;201;48.758;9.290;2022-11-15T07:45:32;7.00;16.70
429;DHT22;201;48.758;9.290;2022-11-15T07:47:59;7.10;15.50
429;DHT22;201;48.758;9.290;2022-11-15T07:50:26;7.30;14.50
429;DHT22;201;48.758;9.290;2022-11-15T07:52:59;7.50;14.10
429;DHT22;201;48.758;9.290;2022-11-15T07:55:27;7.70;13.30
429;DHT22;201;48.758;9.290;2022-11-15T07:58:03;8.00;12.40
429;DHT22;201;48.758;9.290;2022-11-15T08:00:30;8.30;11.30
429;DHT22;201;48.758;9.290;2022-11-15T08:05:32;8.90;9.30
429;DHT22;201;48.758;9.290;2022-11-15T08:07:58;9.10;8.00
429;DHT22;201;48.758;9.290;2022-11-15T08:10:24;9.30;7.20
429;DHT22;201;48.758;9.290;2022-11-15T08:12:58;9.50;6.60
429;DHT22;201;48.758;9.290;2022-11-15T08:15:24;9.70;5.70
429;DHT22;201;48.758;9.290;2022-11-15T08:17:54;9.80;5.70
429;DHT22;201;48.758;9.290;2022-11-15T08:20:19;9.70;4.70
429;DHT22;201;48.758;9.290;2022-11-15T08:22:45;9.60;4.50
429;DHT22;201;48.758;9.290;2022-11-15T08:25:10;9.60;4.70
429;DHT22;201;48.758;9.290;2022-11-15T08:27:36;9.60;4.10
429;DHT22;201;48.758;9.290;2022-11-15T08:30:02;9.80;4.60
429;DHT22;201;48.758;9.290;2022-11-15T08:32:27;10.00;2.80
429;DHT22;201;48.758;9.290;2022-11-15T08:34:53;10.00;2.20
429;DHT22;201;48.758;9.290;2022-11-15T08:37:18;10.00;2.10
429;DHT22;201;48.758;9.290;2022-11-15T08:39:44;10.00;2.10
429;DHT22;201;48.758;9.290;2022-11-15T08:42:09;9.90;2.90
429;DHT22;201;48.758;9.290;2022-11-15T08:44:35;10.00;2.10
429;DHT22;201;48.758;9.290;2022-11-15T08:47:00;10.10;2.20
429;DHT22;201;48.758;9.290;2022-11-15T08:49:26;10.00;1.70
429;DHT22;201;48.758;9.290;2022-11-15T08:51:52;10.20;1.70
429;DHT22;201;48.758;9.290;2022-11-15T08:54:18;10.20;1.00
429;DHT22;201;48.758;9.290;2022-11-15T08:56:43;10.20;1.00
429;DHT22;201;48.758;9.290;2022-11-15T08:59:09;10.20;1.00
429;DHT22;201;48.758;9.290;2022-11-15T09:01:34;10.30;1.00
429;DHT22;201;48.758;9.290;2022-11-15T09:04:00;10.40;1.00
429;DHT22;201;48.758;9.290;2022-11-15T09:06:25;10.40;1.00
429;DHT22;201;48.758;9.290;2022-11-15T09:08:51;10.50;1.10
429;DHT22;201;48.758;9.290;2022-11-15T09:11:16;10.60;1.20
429;DHT22;201;48.758;9.290;2022-11-15T09:13:45;10.70;1.00
429;DHT22;201;48.758;9.290;2022-11-15T09:16:10;10.90;1.00
429;DHT22;201;48.758;9.290;2022-11-15T09:18:38;11.00;1.00
429;DHT22;201;48.758;9.290;2022-11-15T09:21:03;11.10;1.00
429;DHT22;201;48.758;9.290;2022-11-15T09:23:29;11.20;1.00
429;DHT22;201;48.758;9.290;2022-11-15T09:26:03;11.40;1.00
429;DHT22;201;48.758;9.290;2022-11-15T09:28:29;11.50;1.00
429;DHT22;201;48.758;9.290;2022-11-15T09:30:57;11.80;1.00
429;DHT22;201;48.758;9.290;2022-11-15T09:33:23;12.00;1.00
429;DHT22;201;48.758;9.290;2022-11-15T09:35:48;12.30;1.00
429;DHT22;201;48.758;9.290;2022-11-15T09:38:14;12.50;1.00
429;DHT22;201;48.758;9.290;2022-11-15T09:40:39;12.70;1.00
429;DHT22;201;48.758;9.290;2022-11-15T09:43:28;13.00;1.00
429;DHT22;201;48.758;9.290;2022-11-15T09:46:22;13.20;1.00
429;DHT22;201;48.758;9.290;2022-11-15T09:48:58;13.30;1.00
429;DHT22;201;48.758;9.290;2022-11-15T09:51:31;13.20;1.00
429;DHT22;201;48.758;9.290;2022-11-15T09:54:11;13.10;1.00
429;DHT22;201;48.758;9.290;2022-11-15T09:56:41;12.80;1.00
429;DHT22;201;48.758;9.290;2022-11-15T10:04:41;12.30;1.00
429;DHT22;201;48.758;9.290;2022-11-15T10:07:19;12.10;1.00
429;DHT22;201;48.758;9.290;2022-11-15T10:09:52;12.10;1.00
429;DHT22;201;48.758;9.290;2022-11-15T10:12:18;12.30;1.00
429;DHT22;201;48.758;9.290;2022-11-15T10:14:45;12.40;1.00
429;DHT22;201;48.758;9.290;2022-11-15T10:19:52;12.90;1.00
429;DHT22;201;48.758;9.290;2022-11-15T10:22:36;13.00;1.00
429;DHT22;201;48.758;9.290;2022-11-15T10:25:17;13.10;1.00
429;DHT22;201;48.758;9.290;2022-11-15T10:27:45;13.20;1.00
429;DHT22;201;48.758;9.290;2022-11-15T10:30:15;13.40;1.00
429;DHT22;201;48.758;9.290;2022-11-15T10:32:42;13.60;1.00
429;DHT22;201;48.758;9.290;2022-11-15T10:35:28;13.70;1.00
429;DHT22;201;48.758;9.290;2022-11-15T10:38:09;13.80;1.00
429;DHT22;201;48.758;9.290;2022-11-15T10:40:36;13.90;1.00
429;DHT22;201;48.758;9.290;2022-11-15T10:43:17;14.00;1.00
429;DHT22;201;48.758;9.290;2022-11-15T10:45:43;14.10;1.00
429;DHT22;201;48.758;9.290;2022-11-15T10:50:39;14.20;1.00
429;DHT22;201;48.758;9.290;2022-11-15T10:55:48;14.20;1.00
429;DHT22;201;48.758;9.290;2022-11-15T11:01:16;14.10;1.00
429;DHT22;201;48.758;9.290;2022-11-15T11:03:43;14.20;1.00
429;DHT22;201;48.758;9.290;2022-11-15T11:06:14;14.20;1.00
429;DHT22;201;48.758;9.290;2022-11-15T11:08:57;14.20;1.00
429;DHT22;201;48.758;9.290;2022-11-15T11:11:23;14.20;1.00
429;DHT22;201;48.758;9.290;2022-11-15T11:13:49;14.20;1.00
429;DHT22;201;48.758;9.290;2022-11-15T11:19:28;14.40;1.00
429;DHT22;201;48.758;9.290;2022-11-15T11:22:23;14.40;1.00
429;DHT22;201;48.758;9.290;2022-11-15T11:25:04;14.40;1.00
429;DHT22;201;48.758;9.290;2022-11-15T11:31:07;14.10;1.00
429;DHT22;201;48.758;9.290;2022-11-15T11:33:31;14.00;1.00
429;DHT22;201;48.758;9.290;2022-11-15T11:44:58;14.00;1.00
429;DHT22;201;48.758;9.290;2022-11-15T11:47:28;14.00;1.00
429;DHT22;201;48.758;9.290;2022-11-15T11:49:59;14.10;1.00
429;DHT22;201;48.758;9.290;2022-11-15T11:55:20;14.00;1.00
429;DHT22;201;48.758;9.290;2022-11-15T12:00:22;13.90;1.00
429;DHT22;201;48.758;9.290;2022-11-15T12:05:40;13.70;1.00
429;DHT22;201;48.758;9.290;2022-11-15T12:10:59;13.70;1.00
429;DHT22;201;48.758;9.290;2022-11-15T12:13:26;13.90;1.00
429;DHT22;201;48.758;9.290;2022-11-15T12:16:17;14.20;1.00
429;DHT22;201;48.758;9.290;2022-11-15T12:18:49;14.40;1.00
429;DHT22;201;48.758;9.290;2022-11-15T12:21:23;14.40;1.00
429;DHT22;201;48.758;9.290;2022-11-15T12:23:54;14.40;1.00
429;DHT22;201;48.758;9.290;2022-11-15T12:26:24;14.20;1.00
429;DHT22;201;48.758;9.290;2022-11-15T12:28:54;14.20;1.00
429;DHT22;201;48.758;9.290;2022-11-15T12:34:02;14.10;1.00
429;DHT22;201;48.758;9.290;2022-11-15T12:36:35;14.00;1.00
429;DHT22;201;48.758;9.290;2022-11-15T12:39:07;14.00;1.00
429;DHT22;201;48.758;9.290;2022-11-15T12:41:44;14.10;1.00
429;DHT22;201;48.758;9.290;2022-11-15T12:47:04;14.00;1.00
429;DHT22;201;48.758;9.290;2022-11-15T12:49:47;13.90;1.00
429;DHT22;201;48.758;9.290;2022-11-15T12:52:14;13.80;1.00
429;DHT22;201;48.758;9.290;2022-11-15T12:59:56;13.70;1.00
429;DHT22;201;48.758;9.290;2022-11-15T13:02:43;13.70;1.00
429;DHT22;201;48.758;9.290;2022-11-15T13:17:45;13.20;1.00
429;DHT22;201;48.758;9.290;2022-11-15T13:20:17;13.10;1.00
429;DHT22;201;48.758;9.290;2022-11-15T13:26:00;13.10;1.00
429;DHT22;201;48.758;9.290;2022-11-15T13:28:39;12.90;1.00
429;DHT22;201;48.758;9.290;2022-11-15T13:33:44;12.90;1.00
429;DHT22;201;48.758;9.290;2022-11-15T13:36:22;13.00;1.00
429;DHT22;201;48.758;9.290;2022-11-15T13:39:05;13.00;1.00
429;DHT22;201;48.758;9.290;2022-11-15T13:41:46;13.00;1.00
429;DHT22;201;48.758;9.290;2022-11-15T13:44:26;13.00;1.00
429;DHT22;201;48.758;9.290;2022-11-15T13:47:14;13.00;1.00
429;DHT22;201;48.758;9.290;2022-11-15T13:49:40;13.00;1.00
429;DHT22;201;48.758;9.290;2022-11-15T13:52:09;13.00;1.00
429;DHT22;201;48.758;9.290;2022-11-15T13:54:45;13.00;1.00
429;DHT22;201;48.758;9.290;2022-11-15T13:57:20;13.00;1.00
429;DHT22;201;48.758;9.290;2022-11-15T14:00:03;12.90;1.00
429;DHT22;201;48.758;9.290;2022-11-15T14:02:34;12.90;1.00
429;DHT22;201;48.758;9.290;2022-11-15T14:07:29;12.80;1.00
429;DHT22;201;48.758;9.290;2022-11-15T14:09:55;12.80;1.00
429;DHT22;201;48.758;9.290;2022-11-15T14:14:55;12.60;1.00
429;DHT22;201;48.758;9.290;2022-11-15T14:19:57;12.40;1.00
429;DHT22;201;48.758;9.290;2022-11-15T14:22:24;12.30;1.00
429;DHT22;201;48.758;9.290;2022-11-15T14:25:20;12.20;1.00
429;DHT22;201;48.758;9.290;2022-11-15T14:28:13;12.10;1.00
429;DHT22;201;48.758;9.290;2022-11-15T14:30:40;12.00;1.00
429;DHT22;201;48.758;9.290;2022-11-15T14:33:36;11.90;1.00
429;DHT22;201;48.758;9.290;2022-11-15T14:36:13;11.70;1.60
429;DHT22;201;48.758;9.290;2022-11-15T14:38:40;11.60;1.90
429;DHT22;201;48.758;9.290;2022-11-15T14:41:28;11.50;1.80
429;DHT22;201;48.758;9.290;2022-11-15T14:43:57;11.50;1.80
429;DHT22;201;48.758;9.290;2022-11-15T14:46:23;11.50;2.80
429;DHT22;201;48.758;9.290;2022-11-15T14:48:48;11.50;3.60
429;DHT22;201;48.758;9.290;2022-11-15T14:51:16;11.40;3.10
429;DHT22;201;48.758;9.290;2022-11-15T14:53:43;11.40;1.70
429;DHT22;201;48.758;9.290;2022-11-15T14:56:09;11.30;1.70
429;DHT22;201;48.758;9.290;2022-11-15T14:58:35;11.30;1.70
429;DHT22;201;48.758;9.290;2022-11-15T15:01:19;11.30;1.70
429;DHT22;201;48.758;9.290;2022-11-15T15:03:45;11.30;1.70
429;DHT22;201;48.758;9.290;2022-11-15T15:06:11;11.30;1.70
429;DHT22;201;48.758;9.290;2022-11-15T15:08:38;11.40;1.70
429;DHT22;201;48.758;9.290;2022-11-15T15:11:10;11.50;1.80
429;DHT22;201;48.758;9.290;2022-11-15T15:13:37;11.50;1.80
429;DHT22;201;48.758;9.290;2022-11-15T15:16:02;11.50;1.80
429;DHT22;201;48.758;9.290;2022-11-15T15:18:28;11.60;1.20
429;DHT22;201;48.758;9.290;2022-11-15T15:20:56;11.60;1.00
429;DHT22;201;48.758;9.290;2022-11-15T15:23:25;11.70;1.00
429;DHT22;201;48.758;9.290;2022-11-15T15:25:54;11.70;1.00
429;DHT22;201;48.758;9.290;2022-11-15T15:28:19;11.70;1.00
429;DHT22;201;48.758;9.290;2022-11-15T15:30:45;11.70;1.00
429;DHT22;201;48.758;9.290;2022-11-15T15:33:10;11.70;1.00
429;DHT22;201;48.758;9.290;2022-11-15T15:35:36;11.60;1.90
429;DHT22;201;48.758;9.290;2022-11-15T15:38:02;11.50;2.50
429;DHT22;201;48.758;9.290;2022-11-15T15:40:29;11.30;3.30
429;DHT22;201;48.758;9.290;2022-11-15T15:42:55;11.10;3.90
429;DHT22;201;48.758;9.290;2022-11-15T15:45:21;11.00;4.60
429;DHT22;201;48.758;9.290;2022-11-15T15:47:47;11.00;5.40
429;DHT22;201;48.758;9.290;2022-11-15T15:50:26;10.90;5.30
429;DHT22;201;48.758;9.290;2022-11-15T15:52:54;10.80;5.70
429;DHT22;201;48.758;9.290;2022-11-15T15:55:20;10.80;5.20
429;DHT22;201;48.758;9.290;2022-11-15T15:57:46;10.90;5.20
429;DHT22;201;48.758;9.290;2022-11-15T16:00:12;10.90;5.20
429;DHT22;201;48.758;9.290;2022-11-15T16:02:39;10.90;4.90
429;DHT22;201;48.758;9.290;2022-11-15T16:05:05;11.00;4.80
429;DHT22;201;48.758;9.290;2022-11-15T16:07:31;11.10;4.00
429;DHT22;201;48.758;9.290;2022-11-15T16:09:57;11.10;4.30
429;DHT22;201;48.758;9.290;2022-11-15T16:12:30;11.20;3.80
429;DHT22;201;48.758;9.290;2022-11-15T16:14:56;11.30;3.60
429;DHT22;201;48.758;9.290;2022-11-15T16:17:24;11.40;2.30
429;DHT22;201;48.758;9.290;2022-11-15T16:19:50;11.50;1.80
429;DHT22;201;48.758;9.290;2022-11-15T16:22:15;11.60;2.10
429;DHT22;201;48.758;9.290;2022-11-15T16:24:41;11.60;1.90
429;DHT22;201;48.758;9.290;2022-11-15T16:27:13;11.70;2.00
429;DHT22;201;48.758;9.290;2022-11-15T16:29:39;11.70;2.00
429;DHT22;201;48.758;9.290;2022-11-15T16:32:04;11.70;2.00
429;DHT22;201;48.758;9.290;2022-11-15T16:34:30;11.70;2.30
429;DHT22;201;48.758;9.290;2022-11-15T16:36:55;11.80;2.40
429;DHT22;201;48.758;9.290;2022-11-15T16:39:21;11.70;2.70
429;DHT22;201;48.758;9.290;2022-11-15T16:41:47;11.70;3.00
429;DHT22;201;48.758;9.290;2022-11-15T16:44:13;11.70;3.20
429;DHT22;201;48.758;9.290;2022-11-15T16:46:41;11.70;3.00
429;DHT22;201;48.758;9.290;2022-11-15T16:49:14;11.70;2.90
429;DHT22;201;48.758;9.290;2022-11-15T16:51:41;11.70;3.20
429;DHT22;201;48.758;9.290;2022-11-15T16:54:09;11.70;3.20
429;DHT22;201;48.758;9.290;2022-11-15T16:56:34;11.70;3.30
429;DHT22;201;48.758;9.290;2022-11-15T16:59:00;11.70;3.20
429;DHT22;201;48.758;9.290;2022-11-15T17:01:31;11.70;3.20
429;DHT22;201;48.758;9.290;2022-11-15T17:03:58;11.70;3.10
429;DHT22;201;48.758;9.290;2022-11-15T17:06:25;11.70;2.60
429;DHT22;201;48.758;9.290;2022-11-15T17:08:51;11.70;2.90
429;DHT22;201;48.758;9.290;2022-11-15T17:11:19;11.70;2.70
429;DHT22;201;48.758;9.290;2022-11-15T17:13:46;11.70;2.00
429;DHT22;201;48.758;9.290;2022-11-15T17:16:14;11.80;2.00
429;DHT22;201;48.758;9.290;2022-11-15T17:18:41;11.80;2.00
429;DHT22;201;48.758;9.290;2022-11-15T17:21:14;11.80;2.00
429;DHT22;201;48.758;9.290;2022-11-15T17:23:41;11.80;1.60
429;DHT22;201;48.758;9.290;2022-11-15T17:26:07;11.80;1.80
429;DHT22;201;48.758;9.290;2022-11-15T17:28:35;11.80;1.00
429;DHT22;201;48.758;9.290;2022-11-15T17:31:05;11.90;1.00
429;DHT22;201;48.758;9.290;2022-11-15T17:33:32;11.90;1.00
429;DHT22;201;48.758;9.290;2022-11-15T17:35:58;11.90;1.00
429;DHT22;201;48.758;9.290;2022-11-15T17:38:24;12.00;1.00
429;DHT22;201;48.758;9.290;2022-11-15T17:41:11;12.00;1.00
429;DHT22;201;48.758;9.290;2022-11-15T17:43:37;11.90;1.40
429;DHT22;201;48.758;9.290;2022-11-15T17:46:08;11.90;2.10
429;DHT22;201;48.758;9.290;2022-11-15T17:48:35;11.80;2.00
429;DHT22;201;48.758;9.290;2022-11-15T17:51:03;11.70;2.50
429;DHT22;201;48.758;9.290;2022-11-15T17:53:39;11.60;2.60
429;DHT22;201;48.758;9.290;2022-11-15T17:56:07;11.60;3.20
429;DHT22;201;48.758;9.290;2022-11-15T17:58:33;11.60;3.50
429;DHT22;201;48.758;9.290;2022-11-15T18:03:43;11.60;3.10
429;DHT22;201;48.758;9.290;2022-11-15T18:06:09;11.60;3.20
429;DHT22;201;48.758;9.290;2022-11-15T18:08:36;11.60;3.20
429;DHT22;201;48.758;9.290;2022-11-15T18:11:06;11.50;3.80
429;DHT22;201;48.758;9.290;2022-11-15T18:13:33;11.50;3.30
429;DHT22;201;48.758;9.290;2022-11-15T18:15:59;11.60;3.40
429;DHT22;201;48.758;9.290;2022-11-15T18:18:29;11.60;3.30
429;DHT22;201;48.758;9.290;2022-11-15T18:21:14;11.60;3.60
429;DHT22;201;48.758;9.290;2022-11-15T18:23:41;11.60;3.50
429;DHT22;201;48.758;9.290;2022-11-15T18:26:08;11.60;3.70
429;DHT22;201;48.758;9.290;2022-11-15T18:28:36;11.60;3.70
429;DHT22;201;48.758;9.290;2022-11-15T18:31:05;11.50;3.80
429;DHT22;201;48.758;9.290;2022-11-15T18:33:36;11.60;4.00
429;DHT22;201;48.758;9.290;2022-11-15T18:36:06;11.60;4.00
429;DHT22;201;48.758;9.290;2022-11-15T18:38:33;11.50;4.00
429;DHT22;201;48.758;9.290;2022-11-15T18:41:07;11.50;4.10
429;DHT22;201;48.758;9.290;2022-11-15T18:43:33;11.50;4.40
429;DHT22;201;48.758;9.290;2022-11-15T18:46:13;11.50;4.60
429;DHT22;201;48.758;9.290;2022-11-15T18:48:40;11.50;4.70
429;DHT22;201;48.758;9.290;2022-11-15T18:51:07;11.50;4.80
429;DHT22;201;48.758;9.290;2022-11-15T18:53:33;11.50;4.70
429;DHT22;201;48.758;9.290;2022-11-15T18:56:04;11.50;4.70
429;DHT22;201;48.758;9.290;2022-11-15T18:58:31;11.50;4.60
429;DHT22;201;48.758;9.290;2022-11-15T19:01:03;11.50;4.50
429;DHT22;201;48.758;9.290;2022-11-15T19:03:33;11.60;4.60
429;DHT22;201;48.758;9.290;2022-11-15T19:06:19;11.60;4.60